Alamo, Nevada Weather observations

Data are for observation ending at time listed.
 Day   Time    Ave.   Ave.  Ave.  Vector   Max.   Stn.    Total    Solar   Ave.  
  of    of     Air    Rel.  Wind   Wind    Wind   Baro.  Precip.   Rad.    Soil  
Year   Day     Temp.  Hum.  Speed  Dir.    Gust   Pres.                    Temp. 
2015   (PST)    F      %     mph   deg.    mph     mb.     in.     W/m2     F   
------------------------------------------------------------------------------
  85    9:10   59.4    22    3.4    45      7.0   906.5    0.00      55    53.7
  85    9:20   59.8    21    2.9     4      5.6   906.5    0.00      42    53.8
  85    9:30   60.6    21    3.3     9      6.4   906.4    0.00      53    53.9
  85    9:40   61.6    21    3.9     2      7.1   906.2    0.00      43    54.0
  85    9:50   62.5    20    4.6     1      8.6   906.1    0.00      49    54.2
  85   10:00   63.5    21    3.2   314      7.2   906.1    0.00      66    54.3
  85   10:10   64.7    21    3.8   299      8.3   905.9    0.00      91    54.5
  85   10:20   64.5    20    2.5   332      7.8   905.8    0.00     169    54.8
  85   10:30   65.9    22    3.2   292      6.9   905.7    0.00      88    55.1
  85   10:40   66.3    19    3.6   322      8.0   905.5    0.00      98    55.5
  85   10:50   66.3    19    4.9     2     10.1   905.4    0.00      86    55.9
  85   11:00   66.5    19    5.0   345      8.9   905.2    0.00     122    56.6
  85   11:10   66.9    18    3.9     4      8.3   905.0    0.00     139    57.4
  85   11:20   67.1    19    4.7   350      8.8   905.0    0.00     206    58.3
  85   11:30   67.7    18    3.6   329      8.3   904.9    0.00     355    59.0
  85   11:40   68.6    18    2.8   309      7.9   904.8    0.00     497    59.6
  85   11:50   69.3    18    4.0   323     11.1   904.6    0.00     794    60.2
  85   12:00   70.1    17    3.8   338      9.9   904.4    0.00     894    60.7
  85   12:10   70.8    16    2.1    28      7.9   904.2    0.00     963    61.6
  85   12:20   70.6    17    2.7    12     10.5   904.1    0.00     935    62.9
  85   12:30   71.3    17    4.0   322      8.4   904.0    0.00     937    64.3
  85   12:40   73.7    16    3.0   273      9.3   903.9    0.00     910    65.7
  85   12:50   72.8    16    4.8   314     11.0   903.6    0.00     829    67.1
  85   13:00   74.0    16    2.5   230      6.0   903.2    0.00     800    68.4
  85   13:10   74.4    16    3.4   298      7.2   903.0    0.00     740    69.4
  85   13:20   75.5    15    2.3   305      7.3   902.7    0.00     727    70.4
  85   13:30   74.5    15    3.2   319      9.4   902.6    0.00     816    71.3
  85   13:40   74.3    16    2.8   314      6.9   902.4    0.00     804    72.1
  85   13:50   75.6    15    3.0   328      7.2   902.2    0.00     818    72.8
  85   14:00   76.1    14    4.3   340     11.5   902.1    0.00     819    73.7
  85   14:10   75.1    15    2.0     5      5.6   901.8    0.00     791    74.5
  85   14:20   75.8    15    2.7   355      6.9   901.7    0.00     751    75.1
  85   14:30   75.7    15    3.3   260      6.8   901.6    0.00     734    75.8
  85   14:40   77.3    14    3.3   332      8.8   901.5    0.00     707    76.3
  85   14:50   78.0    14    1.1   286      4.2   901.3    0.00     663    76.7
  85   15:00   78.7    14    2.5   239      5.8   901.1    0.00     650    77.2
  85   15:10   78.6    14    3.2   306      7.9   901.0    0.00     631    77.6
  85   15:20   77.9    13    2.6   358      7.9   900.9    0.00     595    77.9
  85   15:30   77.4    13    1.3    30      3.6   900.6    0.00     558    78.2
  85   15:40   77.9    13    3.0   317      7.9   900.5    0.00     530    78.3
  85   15:50   79.5    13    1.8   298      6.1   900.5    0.00     492    78.4
  85   16:00   79.0    13    3.1   346      7.8   900.4    0.00     462    78.5
  85   16:10   78.3    13    2.9   306      8.1   900.4    0.00     417    78.4
  85   16:20   78.5    13    2.7   323      5.4   900.4    0.00     385    78.2
  85   16:30   79.4    13    1.9   300      5.4   900.4    0.00     347    77.6
  85   16:40   77.9    13    3.3   327      6.3   900.3    0.00     318    77.0
  85   16:50   77.4    13    2.7   359      4.7   900.3    0.00     279    76.2
  85   17:00   77.0    13    2.5   287      4.7   900.2    0.00     238    75.4
  85   17:10   76.3    14    2.3   290      5.3   900.2    0.00     200    74.6
  85   17:20   75.3    14    1.6   307      2.9   900.2    0.00     132    73.9
  85   17:30   74.5    14    1.7   286      3.7   900.3    0.00      91    73.2
  85   17:40   73.7    15    0.9   297      2.7   900.3    0.00      26    72.5
  85   17:50   72.7    15    0.7   262      2.2   900.4    0.00      12    71.9
  85   18:00   70.6    19    0.1   236      1.0   900.5    0.00       7    71.3
  85   18:10   67.6    22    0.0   208      0.6   900.7    0.00       2    70.7
  85   18:20   65.6    24    0.2   262      1.3   900.9    0.00       0    70.1
  85   18:30   64.3    23    0.2   206      1.8   901.1    0.00       0    69.5
  85   18:40   63.6    24    0.1   248      0.8   901.2    0.00       0    68.9
  85   18:50   62.2    26    0.0   251      0.1   901.3    0.00       0    68.4
  85   19:00   61.0    28    0.1   248      0.9   901.4    0.00       0    67.8
  85   19:10   61.0    28    0.2   263      1.2   901.5    0.00       0    67.3
  85   19:20   60.7    28    0.7   193      2.2   901.6    0.00       0    66.9
  85   19:30   59.7    30    0.2   198      1.0   901.7    0.00       0    66.4
  85   19:40   58.3    31    0.0     0      0.0   901.8    0.00       0    66.0
  85   19:50   57.1    32    0.0     0      0.0   901.9    0.00       0    65.6
  85   20:00   56.6    33    0.0    48      0.2   902.0    0.00       0    65.2
  85   20:10   55.9    36    1.1    28      2.0   902.1    0.00       0    64.8
  85   20:20   55.0    44    0.8    23      1.7   902.2    0.00       0    64.4
  85   20:30   54.7    42    0.6     1      1.4   902.4    0.00       0    64.0
  85   20:40   54.5    40    1.0   317      1.8   902.5    0.00       0    63.7
  85   20:50   53.6    40    0.5   290      1.8   902.7    0.00       0    63.4
  85   21:00   53.1    40    0.5    18      2.0   902.7    0.00       0    63.1
  85   21:10   52.4    44    0.8    16      2.1   902.8    0.00       0    62.7
  85   21:20   51.8    43    1.0   348      2.2   902.9    0.00       0    62.4
  85   21:30   51.5    45    0.9   319      1.5   902.9    0.00       0    62.1
  85   21:40   50.4    46    1.2   321      1.6   903.0    0.00       0    61.8
  85   21:50   50.0    47    1.1    56      2.1   903.1    0.00       0    61.6
  85   22:00   49.4    50    0.7   354      1.4   903.2    0.00       0    61.3
  85   22:10   49.4    48    0.9   353      1.4   903.2    0.00       0    61.0
  85   22:20   49.2    47    1.4   343      2.2   903.3    0.00       0    60.7
  85   22:30   48.7    48    0.9   327      2.0   903.3    0.00       0    60.4
  85   22:40   47.6    50    1.2   289      2.1   903.4    0.00       0    60.2
  85   22:50   47.0    47    0.5   298      1.4   903.4    0.00       0    59.9
  85   23:00   47.6    44    1.0   326      2.0   903.5    0.00       0    59.7
  85   23:10   48.0    44    1.2   286      2.1   903.5    0.00       0    59.4
  85   23:20   47.8    44    0.5   313      1.3   903.5    0.00       0    59.2
  85   23:30   47.8    44    0.3   291      1.7   903.6    0.00       0    58.9
  85   23:40   46.8    43    1.0   293      2.0   903.5    0.00       0    58.7
  85   23:50   46.6    42    0.9   308      1.9   903.5    0.00       0    58.5
  86    0:00   46.6    44    0.2    45      1.0   903.6    0.00       0    58.2
  86    0:10   45.9    49    0.9     2      1.4   903.6    0.00       0    58.0
  86    0:20   46.1    48    0.8   359      1.2   903.6    0.00       0    57.8
  86    0:30   45.7    50    0.7   304      1.5   903.6    0.00       0    57.6
  86    0:40   45.0    51    0.7    25      1.4   903.6    0.00       0    57.4
  86    0:50   44.4    53    0.8    15      1.5   903.6    0.00       0    57.3
  86    1:00   43.8    55    0.2   335      1.2   903.6    0.00       0    57.1
  86    1:10   43.4    54    0.3   236      1.4   903.5    0.00       0    56.9
  86    1:20   43.2    55    0.0     0      0.0   903.5    0.00       0    56.7
  86    1:30   43.0    56    0.0     0      0.0   903.5    0.00       0    56.5
  86    1:40   42.6    56    0.3   281      1.2   903.5    0.00       0    56.3
  86    1:50   42.5    56    0.6     6      1.7   903.5    0.00       0    56.1
  86    2:00   42.4    57    0.4   320      1.3   903.5    0.00       0    56.0
  86    2:10   41.8    58    1.0    32      2.0   903.4    0.00       0    55.8
  86    2:20   41.5    59    1.3    32      2.9   903.4    0.00       0    55.6
  86    2:30   41.1    61    1.2     4      2.2   903.4    0.00       0    55.5
  86    2:40   40.9    63    1.3   318      2.3   903.4    0.00       0    55.3
  86    2:50   40.4    63    1.0   286      2.4   903.4    0.00       0    55.1
  86    3:00   40.6    61    0.9    51      1.8   903.4    0.00       0    55.0
  86    3:10   40.3    62    1.3     7      2.0   903.4    0.00       0    54.8
  86    3:20   40.2    61    1.0   356      2.0   903.3    0.00       0    54.6
  86    3:30   40.4    61    1.2     3      2.2   903.3    0.00       0    54.5
  86    3:40   40.4    61    0.0   345      0.5   903.3    0.00       0    54.3
  86    3:50   40.1    61    0.6   327      1.5   903.2    0.00       0    54.2
  86    4:00   39.7    62    0.7    64      2.0   903.3    0.00       0    54.0
  86    4:10   39.4    64    0.6   305      1.9   903.3    0.00       0    53.9
  86    4:20   39.2    64    0.0   335      0.5   903.2    0.00       0    53.7
  86    4:30   39.0    63    0.3    65      1.4   903.3    0.00       0    53.6
  86    4:40   38.6    65    0.2   345      1.4   903.3    0.00       0    53.5
  86    4:50   38.8    64    0.2    28      1.4   903.3    0.00       0    53.3
  86    5:00   38.4    65    0.1   334      1.0   903.3    0.00       0    53.2
  86    5:10   38.2    65    0.0    42      0.7   903.3    0.00       0    53.0
  86    5:20   38.1    67    0.4     9      1.7   903.3    0.00       0    52.9
  86    5:30   37.8    67    0.4   313      1.9   903.3    0.00       0    52.7
  86    5:40   37.7    68    0.4   352      2.0   903.4    0.00       0    52.6
  86    5:50   37.6    69    0.9    16      1.8   903.4    0.00       6    52.5
  86    6:00   37.4    70    0.5   333      2.0   903.5    0.00      13    52.4
  86    6:10   37.4    70    0.7    23      1.6   903.7    0.00      14    52.2
  86    6:20   37.8    70    0.8   349      2.1   903.8    0.00      33    52.1
  86    6:30   39.5    68    0.9     3      2.1   903.8    0.00      27    52.0
  86    6:40   41.2    64    0.2   303      1.5   903.9    0.00      27    52.0
  86    6:50   42.8    59    0.8    61      1.9   903.9    0.00      28    52.1
  86    7:00   45.4    53    0.2    58      1.0   903.9    0.00      47    52.4
  86    7:10   48.1    48    0.7   210      1.6   903.8    0.00      46    52.7
  86    7:20   49.6    45    0.1    37      0.9   903.8    0.00      46    52.8
  86    7:30   51.4    42    1.2    21      3.8   903.8    0.00      50    52.9
  86    7:40   54.1    36    2.5    22      4.8   903.8    0.00      50    53.0
  86    7:50   55.7    32    3.2    33      6.0   903.7    0.00      34    53.0
  86    8:00   56.8    31    3.3    24      6.4   903.7    0.00      33    53.1
  86    8:10   57.8    30    2.6    31      6.1   903.8    0.00      41    53.3
  86    8:20   59.1    29    3.5    28      5.5   903.8    0.00      56    53.4
  86    8:30   60.1    28    3.8    31      7.2   903.8    0.00      36    53.6
  86    8:40   61.0    27    3.2    20      5.6   903.7    0.00      34    53.7
  86    8:50   62.2    27    3.4    10      6.0   903.7    0.00      34    53.9
  86    9:00   63.1    25    4.1     2      6.8   903.6    0.00      45    54.1

Return to Alamo, Nevada graphs page.


Western Regional Climate Center,wrcc@dri.edu